Time;durP1;ratioP1;P1;durP2;ratioP2;P2;SDS_P1;SDS_P2;PMS_P1;PMS_P2;Temp;Humidity;BMP_temperature;BMP_pressure;BME280_temperature;BME280_humidity;BME280_pressure;Samples;Min_cycle;Max_cycle;Signal;HPM_P1;HPM_P2
2021/09/04 00:00:18;;;;;;;21.00;11.75;;;;;;;12.17;83.93;101848.88;5052029;28;20020;-53
2021/09/04 00:02:44;;;;;;;20.42;11.65;;;;;;;12.23;83.38;101847.97;5052358;28;20545;-49
2021/09/04 00:05:09;;;;;;;21.35;11.65;;;;;;;12.30;83.00;101856.72;5053057;28;20036;-51
2021/09/04 00:07:35;;;;;;;17.50;10.88;;;;;;;12.34;82.54;101850.63;5056192;28;20491;-50
2021/09/04 00:10:00;;;;;;;19.02;10.82;;;;;;;12.39;82.33;101852.66;5054598;28;20071;-52
2021/09/04 00:12:28;;;;;;;16.15;10.40;;;;;;;12.43;81.96;101858.38;5048647;28;20027;-52
2021/09/04 00:14:54;;;;;;;21.08;11.15;;;;;;;12.47;81.81;101854.16;5055959;28;20032;-51
2021/09/04 00:17:20;;;;;;;21.52;12.65;;;;;;;12.27;84.45;101851.81;5051286;28;20418;-52
2021/09/04 00:19:46;;;;;;;21.08;11.40;;;;;;;12.36;83.33;101853.91;5050394;28;20039;-50
2021/09/04 00:22:12;;;;;;;21.90;12.35;;;;;;;12.19;86.83;101855.63;5052837;28;20410;-52
2021/09/04 00:24:38;;;;;;;21.05;11.85;;;;;;;12.15;87.39;101851.78;5051998;28;20195;-49
2021/09/04 00:27:05;;;;;;;18.17;10.63;;;;;;;12.34;85.07;101860.56;5050414;28;20028;-53
2021/09/04 00:29:31;;;;;;;17.23;10.73;;;;;;;12.45;84.24;101857.09;5054145;28;20127;-53
2021/09/04 00:31:56;;;;;;;17.95;10.43;;;;;;;12.57;83.63;101862.47;5059651;28;20118;-53
2021/09/04 00:34:21;;;;;;;17.60;10.38;;;;;;;12.60;83.26;101864.69;5057182;28;20060;-53
2021/09/04 00:36:47;;;;;;;21.92;11.93;;;;;;;12.65;82.97;101864.78;5051243;28;20577;-51
2021/09/04 00:39:12;;;;;;;22.83;11.82;;;;;;;12.72;82.50;101865.47;5054508;28;20167;-53
2021/09/04 00:41:38;;;;;;;19.40;10.35;;;;;;;12.77;82.27;101862.91;5053362;28;20037;-51
2021/09/04 00:44:05;;;;;;;21.02;10.55;;;;;;;12.81;82.02;101858.69;5052672;28;20108;-53
2021/09/04 00:46:31;;;;;;;19.25;9.45;;;;;;;12.86;81.78;101866.06;5051756;28;20024;-52
2021/09/04 00:48:56;;;;;;;18.48;10.65;;;;;;;12.94;81.46;101866.53;5052265;28;20027;-54
2021/09/04 00:51:22;;;;;;;17.70;10.25;;;;;;;12.97;81.53;101859.84;5051418;28;20029;-53
2021/09/04 00:53:47;;;;;;;21.08;10.80;;;;;;;12.98;81.10;101856.91;5052879;28;20051;-52
2021/09/04 00:56:15;;;;;;;23.08;10.77;;;;;;;12.99;81.13;101853.19;5049643;28;20158;-51
2021/09/04 00:58:41;;;;;;;19.27;10.50;;;;;;;13.07;81.16;101856.53;5049047;28;20522;-52
2021/09/04 01:01:07;;;;;;;21.05;12.07;;;;;;;13.09;81.09;101857.13;5052896;28;20115;-49
2021/09/04 01:03:33;;;;;;;20.05;11.43;;;;;;;13.11;81.15;101863.91;5051900;28;20221;-53
2021/09/04 01:05:59;;;;;;;19.70;11.45;;;;;;;13.15;81.29;101861.56;5051201;28;20378;-50
2021/09/04 01:08:24;;;;;;;17.52;10.25;;;;;;;13.17;81.16;101859.44;5053681;28;20103;-50
2021/09/04 01:10:51;;;;;;;17.50;10.60;;;;;;;13.16;81.22;101855.13;5052874;28;20035;-53
2021/09/04 01:13:18;;;;;;;20.45;11.57;;;;;;;13.16;81.24;101858.63;5053395;28;20028;-52
2021/09/04 01:15:45;;;;;;;19.10;11.73;;;;;;;13.14;81.50;101866.13;5050852;28;20032;-51
2021/09/04 01:18:10;;;;;;;19.23;11.38;;;;;;;13.13;81.83;101864.50;5049689;28;20078;-51
2021/09/04 01:20:36;;;;;;;22.17;12.68;;;;;;;13.15;81.91;101856.19;5051311;28;20431;-51
2021/09/04 01:23:02;;;;;;;25.35;12.88;;;;;;;13.21;82.10;101857.94;5051507;28;20039;-50
2021/09/04 01:25:30;;;;;;;23.88;13.30;;;;;;;13.18;82.24;101867.31;5051631;28;20021;-51
2021/09/04 01:27:57;;;;;;;21.30;12.32;;;;;;;13.18;82.38;101866.50;5051699;28;20415;-51
2021/09/04 01:30:22;;;;;;;22.27;12.00;;;;;;;13.19;82.52;101860.06;5050132;28;20036;-52
2021/09/04 01:32:48;;;;;;;24.92;13.73;;;;;;;13.24;82.44;101868.22;5050855;28;20036;-53
2021/09/04 01:35:19;;;;;;;23.85;13.40;;;;;;;13.20;82.74;101865.19;5053154;28;20055;-50
2021/09/04 01:37:45;;;;;;;22.95;11.88;;;;;;;13.24;82.89;101854.78;5052803;28;20068;-52
2021/09/04 01:40:12;;;;;;;25.83;13.07;;;;;;;13.27;82.88;101855.09;5050794;28;20071;-53
2021/09/04 01:42:38;;;;;;;25.65;14.45;;;;;;;13.29;82.96;101852.22;5053411;28;20041;-52
2021/09/04 01:45:04;;;;;;;29.33;14.98;;;;;;;13.25;83.51;101853.72;5058777;28;20490;-50
2021/09/04 01:47:30;;;;;;;24.55;14.07;;;;;;;13.13;85.02;101850.22;5054840;28;20483;-53
2021/09/04 01:49:56;;;;;;;25.27;14.07;;;;;;;13.21;84.24;101856.06;5052596;28;20035;-53
2021/09/04 01:52:22;;;;;;;27.05;14.27;;;;;;;13.31;83.86;101844.72;5055281;28;20047;-52
2021/09/04 01:54:49;;;;;;;29.08;15.07;;;;;;;13.30;83.84;101845.75;5054907;28;20119;-51
2021/09/04 01:57:15;;;;;;;25.63;13.57;;;;;;;13.32;83.85;101846.34;5052369;28;20028;-52
2021/09/04 01:59:41;;;;;;;27.05;15.45;;;;;;;13.34;83.80;101843.41;5054198;28;20271;-51
2021/09/04 02:02:07;;;;;;;26.27;15.32;;;;;;;13.39;83.78;101840.81;5052408;28;20032;-51
2021/09/04 02:04:33;;;;;;;28.23;15.27;;;;;;;13.36;83.74;101842.09;5053895;28;20063;-50
2021/09/04 02:06:59;;;;;;;31.85;16.48;;;;;;;13.22;85.29;101843.44;5052653;28;20025;-50
2021/09/04 02:09:24;;;;;;;30.23;15.13;;;;;;;13.27;84.80;101838.13;5058098;28;20029;-50
2021/09/04 02:11:50;;;;;;;28.40;15.15;;;;;;;13.32;84.61;101832.06;5054624;28;20483;-51
2021/09/04 02:14:15;;;;;;;27.38;15.32;;;;;;;13.26;84.58;101845.41;5062024;28;20036;-50
2021/09/04 02:16:41;;;;;;;29.75;16.48;;;;;;;13.14;85.36;101843.78;5054462;28;20029;-53
2021/09/04 02:19:07;;;;;;;26.85;14.10;;;;;;;13.17;84.92;101837.94;5055424;28;20146;-50
2021/09/04 02:21:32;;;;;;;27.83;14.63;;;;;;;13.18;84.87;101835.03;5053790;28;20517;-50
2021/09/04 02:23:58;;;;;;;26.13;13.23;;;;;;;13.14;84.98;101830.34;5055432;28;20017;-53
2021/09/04 02:26:23;;;;;;;26.27;14.35;;;;;;;13.13;85.00;101823.31;5054359;28;20375;-51
2021/09/04 02:28:49;;;;;;;27.25;13.77;;;;;;;13.07;85.26;101819.69;5054235;28;20029;-51
2021/09/04 02:31:16;;;;;;;34.70;14.45;;;;;;;12.97;85.94;101822.19;5053760;28;20612;-50
2021/09/04 02:33:41;;;;;;;27.83;14.95;;;;;;;12.91;85.68;101818.56;5054353;28;20024;-53
2021/09/04 02:36:07;;;;;;;22.30;12.63;;;;;;;12.86;85.86;101823.84;5054597;28;20082;-51
2021/09/04 02:38:32;;;;;;;31.60;16.38;;;;;;;12.64;87.92;101829.03;5052238;28;20055;-49
2021/09/04 02:40:58;;;;;;;31.70;16.02;;;;;;;12.30;91.99;101821.78;5052781;28;20086;-51
2021/09/04 02:43:23;;;;;;;36.88;17.58;;;;;;;12.16;92.55;101837.28;5053319;28;20382;-49
2021/09/04 02:45:49;;;;;;;34.55;16.30;;;;;;;12.11;92.23;101831.81;5057478;28;20025;-49
2021/09/04 02:48:14;;;;;;;27.98;14.75;;;;;;;12.15;90.57;101835.66;5054404;28;20356;-51
2021/09/04 02:50:40;;;;;;;24.92;13.55;;;;;;;12.15;89.76;101832.97;5056008;28;20109;-53
2021/09/04 02:53:06;;;;;;;22.73;12.48;;;;;;;12.11;89.15;101831.81;5052978;28;20116;-51
2021/09/04 02:55:33;;;;;;;21.83;13.02;;;;;;;12.07;88.64;101834.16;5053815;28;20036;-50
2021/09/04 02:57:59;;;;;;;24.92;12.95;;;;;;;12.02;88.32;101831.31;5051903;28;20358;-50
2021/09/04 03:00:25;;;;;;;38.05;16.42;;;;;;;11.96;88.26;101826.88;5055634;28;20029;-53
2021/09/04 03:02:50;;;;;;;30.77;15.23;;;;;;;11.89;88.73;101834.22;5053020;28;20024;-50
2021/09/04 03:05:18;;;;;;;37.03;17.45;;;;;;;11.79;89.87;101829.41;5053363;28;20060;-52
2021/09/04 03:07:43;;;;;;;27.42;15.30;;;;;;;11.85;89.09;101824.16;5052312;28;20035;-50
2021/09/04 03:10:10;;;;;;;28.67;13.98;;;;;;;11.84;88.74;101836.75;5053693;28;20025;-52
2021/09/04 03:12:35;;;;;;;24.90;13.25;;;;;;;11.82;88.43;101835.38;5055555;28;20028;-51
2021/09/04 03:15:01;;;;;;;27.63;13.32;;;;;;;11.78;87.98;101835.81;5052861;28;20509;-50
2021/09/04 03:17:26;;;;;;;25.98;13.23;;;;;;;11.76;87.89;101834.38;5051358;28;20160;-52
2021/09/04 03:19:52;;;;;;;23.65;12.68;;;;;;;11.76;87.75;101845.13;5049912;28;20025;-54
2021/09/04 03:22:18;;;;;;;18.42;11.60;;;;;;;11.72;87.83;101842.09;5055421;28;20514;-51
2021/09/04 03:24:43;;;;;;;21.38;11.73;;;;;;;11.71;87.46;101845.81;5053728;28;20050;-52
2021/09/04 03:27:09;;;;;;;18.70;10.52;;;;;;;11.70;87.48;101843.38;5057052;28;20032;-51
2021/09/04 03:29:35;;;;;;;20.90;11.35;;;;;;;11.65;87.34;101841.34;5053035;28;20032;-52
2021/09/04 03:32:01;;;;;;;18.88;11.18;;;;;;;11.62;87.29;101839.13;5059499;28;20055;-52
2021/09/04 03:34:26;;;;;;;17.88;10.23;;;;;;;11.58;87.02;101843.31;5053326;28;20032;-53
2021/09/04 03:36:52;;;;;;;20.75;12.15;;;;;;;11.57;86.93;101852.41;5054835;28;20033;-50
2021/09/04 03:39:17;;;;;;;19.05;10.82;;;;;;;11.47;86.93;101858.31;5057044;28;20021;-54
2021/09/04 03:41:43;;;;;;;27.35;12.93;;;;;;;11.27;89.78;101864.97;5052773;28;20451;-51
2021/09/04 03:44:08;;;;;;;30.48;16.50;;;;;;;11.14;92.97;101866.81;5054207;28;20032;-51
2021/09/04 03:46:34;;;;;;;38.35;17.75;;;;;;;11.15;93.41;101860.41;5054396;28;20054;-53
2021/09/04 03:49:00;;;;;;;26.73;14.07;;;;;;;11.32;91.73;101855.25;5051463;28;20110;-52
2021/09/04 03:51:27;;;;;;;31.02;15.48;;;;;;;11.34;92.83;101860.38;5053310;28;20025;-54
2021/09/04 03:53:53;;;;;;;27.73;14.23;;;;;;;11.49;91.06;101856.25;5053499;28;20559;-53
2021/09/04 03:56:18;;;;;;;20.50;12.25;;;;;;;11.56;90.29;101858.84;5051441;28;20032;-53
2021/09/04 03:58:44;;;;;;;17.95;9.93;;;;;;;11.64;89.30;101857.69;5055694;28;20021;-52
2021/09/04 04:01:10;;;;;;;20.42;10.40;;;;;;;11.68;88.85;101862.41;5052122;28;20376;-52
2021/09/04 04:03:35;;;;;;;18.33;10.90;;;;;;;11.73;88.38;101857.16;5050665;28;20024;-52
2021/09/04 04:06:01;;;;;;;17.60;10.20;;;;;;;11.78;87.80;101861.81;5051561;28;20060;-50
2021/09/04 04:08:26;;;;;;;19.52;10.95;;;;;;;11.74;87.47;101861.47;5052029;28;20039;-51
2021/09/04 04:10:52;;;;;;;17.98;10.07;;;;;;;11.77;87.25;101860.19;5053697;28;20023;-51
2021/09/04 04:13:17;;;;;;;18.75;10.82;;;;;;;11.74;87.19;101864.16;5053042;28;20123;-52
2021/09/04 04:15:43;;;;;;;21.95;10.95;;;;;;;11.76;87.06;101867.44;5053357;28;20466;-52
2021/09/04 04:18:08;;;;;;;21.85;12.70;;;;;;;11.73;86.99;101867.88;5056435;28;20758;-51
2021/09/04 04:20:34;;;;;;;23.17;13.23;;;;;;;11.73;87.20;101870.56;5051989;28;20036;-50
2021/09/04 04:22:59;;;;;;;22.10;13.40;;;;;;;11.75;87.03;101867.66;5050813;28;20132;-52
2021/09/04 04:25:25;;;;;;;26.00;13.80;;;;;;;11.75;87.27;101862.28;5053138;28;20078;-51
2021/09/04 04:27:50;;;;;;;24.02;12.93;;;;;;;11.79;87.02;101869.69;5052901;28;20107;-51
2021/09/04 04:30:16;;;;;;;31.13;14.60;;;;;;;11.79;87.40;101864.31;5053526;28;20037;-52
2021/09/04 04:32:42;;;;;;;28.45;12.68;;;;;;;11.83;87.33;101866.53;5052312;28;20240;-53
2021/09/04 04:35:08;;;;;;;29.60;14.35;;;;;;;11.80;87.62;101871.31;5055270;28;20029;-52
2021/09/04 04:37:33;;;;;;;29.38;15.40;;;;;;;11.72;87.83;101868.94;5054068;28;20029;-50
2021/09/04 04:39:59;;;;;;;25.90;13.98;;;;;;;11.75;87.90;101873.84;5056141;28;20174;-51
2021/09/04 04:42:24;;;;;;;27.85;14.18;;;;;;;11.77;87.94;101876.31;5053130;28;20036;-53
2021/09/04 04:44:49;;;;;;;24.40;12.70;;;;;;;11.84;87.99;101876.22;5053739;28;20021;-50
2021/09/04 04:47:15;;;;;;;23.85;13.40;;;;;;;11.85;87.68;101877.88;5054604;28;20508;-53
2021/09/04 04:49:41;;;;;;;23.90;12.77;;;;;;;11.89;87.81;101887.13;5056338;28;20033;-54
2021/09/04 04:52:06;;;;;;;21.88;12.48;;;;;;;11.95;87.49;101883.50;5051004;28;21169;-52
2021/09/04 04:54:33;;;;;;;27.05;12.90;;;;;;;11.94;87.27;101884.56;5053621;28;20238;-50
2021/09/04 04:56:59;;;;;;;26.65;13.68;;;;;;;11.96;87.36;101880.59;5050261;28;20056;-53
2021/09/04 04:59:24;;;;;;;29.50;15.48;;;;;;;11.99;87.51;101884.69;5054932;28;20063;-51
2021/09/04 05:01:50;;;;;;;39.42;18.25;;;;;;;11.93;88.94;101883.75;5051593;28;20029;-50
2021/09/04 05:04:15;;;;;;;27.27;13.13;;;;;;;11.87;89.25;101881.97;5051186;28;20586;-50
2021/09/04 05:06:41;;;;;;;31.90;16.67;;;;;;;11.70;92.34;101883.63;5050716;28;20498;-51
2021/09/04 05:09:07;;;;;;;26.65;14.57;;;;;;;11.89;90.07;101881.75;5052197;28;20274;-52
2021/09/04 05:11:32;;;;;;;28.17;14.10;;;;;;;12.03;89.31;101877.81;5051296;28;20086;-49
2021/09/04 05:13:58;;;;;;;25.80;13.45;;;;;;;12.12;88.84;101880.97;5050368;28;20020;-54
2021/09/04 05:16:23;;;;;;;23.90;14.23;;;;;;;12.21;88.37;101887.66;5048589;28;20025;-50
2021/09/04 05:18:49;;;;;;;26.05;13.48;;;;;;;12.30;88.10;101886.28;5051197;28;20098;-50
2021/09/04 05:21:14;;;;;;;24.63;13.88;;;;;;;12.39;87.70;101885.72;5043948;28;20031;-52
2021/09/04 05:23:40;;;;;;;24.23;13.75;;;;;;;12.48;87.63;101888.88;5050784;28;20433;-53
2021/09/04 05:26:05;;;;;;;27.65;15.38;;;;;;;12.59;87.28;101885.38;5062940;22;20017;-52
2021/09/04 05:28:31;;;;;;;31.75;15.77;;;;;;;12.60;87.61;101887.00;5048068;28;20067;-50
2021/09/04 05:30:59;;;;;;;35.50;17.67;;;;;;;12.35;91.77;101889.06;5054084;28;20047;-52
2021/09/04 05:33:25;;;;;;;29.60;15.07;;;;;;;12.50;90.41;101885.94;5052186;28;20151;-51
2021/09/04 05:35:50;;;;;;;35.22;16.30;;;;;;;12.67;89.59;101881.50;5048557;28;20189;-51
2021/09/04 05:38:16;;;;;;;29.55;15.35;;;;;;;12.84;88.71;101881.63;5050747;28;20037;-48
2021/09/04 05:40:41;;;;;;;28.55;15.80;;;;;;;13.01;87.93;101880.66;5046766;28;20561;-49
2021/09/04 05:43:07;;;;;;;31.25;16.05;;;;;;;13.15;87.83;101886.59;5052256;28;20111;-49
2021/09/04 05:45:32;;;;;;;28.35;15.02;;;;;;;13.31;87.27;101887.78;5047904;28;20048;-49
2021/09/04 05:47:58;;;;;;;32.85;15.82;;;;;;;13.44;86.67;101883.97;5049108;28;20021;-52
2021/09/04 05:50:23;;;;;;;34.38;16.40;;;;;;;13.51;86.68;101884.66;5048815;28;20029;-50
2021/09/04 05:52:48;;;;;;;30.75;15.45;;;;;;;13.58;86.38;101880.75;5052885;28;20052;-50
2021/09/04 05:55:14;;;;;;;28.40;15.25;;;;;;;13.67;86.14;101881.19;5047564;28;20291;-48
2021/09/04 05:57:39;;;;;;;32.85;17.27;;;;;;;13.64;87.21;101881.66;5046085;28;20078;-50
2021/09/04 06:00:05;;;;;;;41.42;19.02;;;;;;;13.35;91.03;101880.84;5047962;28;20068;-50
2021/09/04 06:02:31;;;;;;;29.30;16.13;;;;;;;13.63;88.76;101881.91;5048515;28;20025;-49
2021/09/04 06:04:56;;;;;;;33.00;17.63;;;;;;;13.85;87.98;101883.69;5046553;28;20028;-52
2021/09/04 06:07:22;;;;;;;31.25;16.73;;;;;;;14.23;86.60;101884.06;5052795;28;20064;-48
2021/09/04 06:09:47;;;;;;;31.60;15.73;;;;;;;14.35;85.73;101880.19;5051993;28;20047;-50
2021/09/04 06:12:13;;;;;;;26.70;15.98;;;;;;;14.53;84.93;101879.16;5046157;28;20033;-49
2021/09/04 06:14:38;;;;;;;35.83;16.63;;;;;;;14.71;84.35;101878.88;5050469;28;20055;-50
2021/09/04 06:17:04;;;;;;;32.83;17.45;;;;;;;14.91;83.57;101880.28;5049669;28;20472;-49
2021/09/04 06:19:29;;;;;;;33.65;16.92;;;;;;;15.01;82.84;101880.38;5046860;28;20452;-49
2021/09/04 06:21:55;;;;;;;34.28;16.50;;;;;;;15.04;82.98;101883.41;5049016;28;20401;-51
2021/09/04 06:24:20;;;;;;;31.00;15.50;;;;;;;15.09;82.70;101882.66;5051811;28;20089;-53
2021/09/04 06:26:46;;;;;;;30.25;16.80;;;;;;;15.13;82.64;101885.69;5052864;28;20025;-51
2021/09/04 06:29:11;;;;;;;29.95;16.35;;;;;;;15.15;83.05;101891.63;5045635;28;20029;-50
2021/09/04 06:31:37;;;;;;;28.90;16.20;;;;;;;15.23;83.08;101889.31;5053408;28;20036;-53
2021/09/04 06:34:02;;;;;;;28.27;15.65;;;;;;;15.31;82.78;101891.59;5053562;28;20184;-53
2021/09/04 06:36:29;;;;;;;29.85;15.25;;;;;;;15.37;82.52;101887.84;5051613;28;20044;-50
2021/09/04 06:38:54;;;;;;;27.38;16.40;;;;;;;15.45;82.15;101888.50;5055269;28;20560;-53
2021/09/04 06:41:20;;;;;;;29.35;15.48;;;;;;;15.51;82.06;101890.19;5051569;28;20127;-52
2021/09/04 06:43:45;;;;;;;30.83;16.15;;;;;;;15.48;82.11;101891.50;5048591;28;20036;-49
2021/09/04 06:46:10;;;;;;;33.47;16.88;;;;;;;15.45;82.23;101897.41;5050139;28;20482;-49
2021/09/04 06:48:36;;;;;;;32.85;18.30;;;;;;;15.48;82.45;101896.91;5049057;28;20155;-52
2021/09/04 06:51:01;;;;;;;30.05;16.98;;;;;;;15.63;82.00;101899.00;5051211;28;20063;-53
2021/09/04 06:53:27;;;;;;;29.70;15.70;;;;;;;16.05;81.07;101893.75;5049416;28;20029;-50
2021/09/04 06:55:52;;;;;;;29.05;15.68;;;;;;;16.35;80.14;101890.47;5052496;28;20111;-51
2021/09/04 06:58:20;;;;;;;29.77;16.98;;;;;;;16.36;79.51;101888.59;5054249;28;20032;-50
2021/09/04 07:00:46;;;;;;;33.30;20.35;;;;;;;16.24;79.43;101899.59;5051071;28;20025;-50
2021/09/04 07:03:11;;;;;;;43.20;22.70;;;;;;;16.22;79.37;101894.44;5051601;28;20028;-51
2021/09/04 07:05:37;;;;;;;28.65;16.27;;;;;;;16.23;79.15;101892.53;5050504;28;20055;-48
2021/09/04 07:08:02;;;;;;;29.70;15.75;;;;;;;16.29;79.23;101897.72;5053901;28;20028;-50
2021/09/04 07:10:28;;;;;;;29.25;16.85;;;;;;;16.48;78.80;101883.78;5052445;28;20032;-50
2021/09/04 07:12:53;;;;;;;30.08;16.15;;;;;;;16.65;78.23;101889.06;5053271;28;20040;-53
2021/09/04 07:15:19;;;;;;;29.38;16.52;;;;;;;16.96;77.62;101885.50;5048194;28;20424;-50
2021/09/04 07:17:44;;;;;;;29.70;16.17;;;;;;;17.24;76.30;101884.28;5049772;28;20568;-53
2021/09/04 07:20:10;;;;;;;29.42;15.15;;;;;;;17.34;75.94;101891.59;5050357;28;20086;-53
2021/09/04 07:22:36;;;;;;;28.48;16.17;;;;;;;17.50;75.33;101890.59;5048389;28;20025;-50
2021/09/04 07:25:01;;;;;;;28.17;15.68;;;;;;;17.84;74.90;101888.25;5049072;28;20296;-52
2021/09/04 07:27:26;;;;;;;28.58;16.13;;;;;;;18.05;73.89;101889.09;5050107;28;20112;-49
2021/09/04 07:29:52;;;;;;;27.73;16.58;;;;;;;18.20;73.21;101888.28;5052811;28;20482;-51
2021/09/04 07:32:17;;;;;;;26.55;16.10;;;;;;;18.44;72.78;101889.34;5048295;28;20029;-49
2021/09/04 07:34:43;;;;;;;30.65;15.80;;;;;;;18.60;72.24;101892.84;5049691;28;20030;-51
2021/09/04 07:37:08;;;;;;;26.52;14.90;;;;;;;18.83;71.40;101892.28;5053218;28;20090;-50
2021/09/04 07:39:34;;;;;;;27.77;14.70;;;;;;;19.07;71.30;101900.66;5052761;28;20110;-50
2021/09/04 07:41:59;;;;;;;30.98;14.90;;;;;;;19.22;71.06;101900.59;5049818;28;20029;-52
2021/09/04 07:44:25;;;;;;;24.48;14.93;;;;;;;19.28;70.66;101898.66;5047669;28;20412;-52
2021/09/04 07:46:50;;;;;;;29.00;16.70;;;;;;;19.33;70.80;101896.72;5049550;28;20025;-52
2021/09/04 07:49:16;;;;;;;26.40;15.15;;;;;;;19.36;70.30;101892.63;5049933;28;20078;-52
2021/09/04 07:51:41;;;;;;;26.63;14.88;;;;;;;19.36;70.04;101898.06;5051218;28;20033;-50
2021/09/04 07:54:07;;;;;;;26.38;13.90;;;;;;;19.40;69.76;101901.88;5048215;28;20554;-51
2021/09/04 07:56:32;;;;;;;24.15;14.60;;;;;;;19.72;68.74;101903.34;5047808;28;20037;-51
2021/09/04 07:58:58;;;;;;;24.35;15.00;;;;;;;20.12;67.10;101905.00;5048966;28;20193;-51
2021/09/04 08:01:23;;;;;;;23.48;14.15;;;;;;;20.44;66.05;101904.47;5049222;28;20024;-50
2021/09/04 08:03:48;;;;;;;25.15;14.43;;;;;;;20.79;65.41;101889.69;5050379;28;20032;-50
2021/09/04 08:06:14;;;;;;;26.88;14.80;;;;;;;20.92;64.75;101882.75;5050875;28;20116;-49
2021/09/04 08:08:40;;;;;;;22.77;14.45;;;;;;;21.12;64.72;101893.41;5049327;28;20771;-49
2021/09/04 08:11:05;;;;;;;23.88;14.05;;;;;;;21.40;63.69;101889.81;5047596;28;20119;-51
2021/09/04 08:13:31;;;;;;;22.25;14.15;;;;;;;21.67;62.84;101896.53;5051007;28;20025;-51
2021/09/04 08:15:57;;;;;;;22.48;13.95;;;;;;;21.94;62.02;101891.22;5049322;28;20621;-54
2021/09/04 08:18:23;;;;;;;24.70;13.65;;;;;;;22.17;61.30;101891.44;5047560;28;20033;-52
2021/09/04 08:20:49;;;;;;;24.83;13.38;;;;;;;22.12;59.32;101899.72;5050483;28;20017;-52
2021/09/04 08:23:15;;;;;;;25.73;13.15;;;;;;;22.06;58.35;101895.41;5051676;28;20025;-50
2021/09/04 08:25:40;;;;;;;25.25;12.88;;;;;;;22.19;58.21;101892.75;5054810;28;20029;-52
2021/09/04 08:28:07;;;;;;;21.23;10.88;;;;;;;22.55;57.81;101894.84;5049896;28;20078;-52
2021/09/04 08:30:34;;;;;;;20.42;11.30;;;;;;;22.78;57.01;101902.06;5050913;28;20533;-52
2021/09/04 08:33:01;;;;;;;21.42;9.82;;;;;;;23.26;55.64;101898.16;5050816;28;20459;-52
2021/09/04 08:35:26;;;;;;;15.57;7.88;;;;;;;23.19;54.78;101902.13;5051310;28;20025;-52
2021/09/04 08:37:53;;;;;;;226.13;159.15;;;;;;;23.68;53.56;101897.78;5049723;28;20065;-52
2021/09/04 08:40:20;;;;;;;85.05;57.63;;;;;;;24.09;52.01;101900.38;5051178;28;20104;-54
2021/09/04 08:42:47;;;;;;;13.32;7.32;;;;;;;23.88;51.56;101890.19;5054652;28;20032;-53
2021/09/04 08:45:12;;;;;;;12.68;5.35;;;;;;;23.63;51.05;101889.69;5050251;28;20494;-54
2021/09/04 08:47:38;;;;;;;9.25;5.28;;;;;;;23.27;50.49;101897.03;5051454;28;20036;-53
2021/09/04 08:50:04;;;;;;;13.38;6.63;;;;;;;22.96;51.02;101900.38;5053087;28;20039;-52
2021/09/04 08:52:31;;;;;;;19.02;6.63;;;;;;;22.88;50.86;101901.91;5050603;28;20029;-50
2021/09/04 08:54:57;;;;;;;19.55;6.35;;;;;;;22.85;50.46;101904.44;5050993;28;20170;-55
2021/09/04 08:57:22;;;;;;;10.27;5.80;;;;;;;22.65;50.31;101907.53;5049021;28;20122;-53
2021/09/04 08:59:52;;;;;;;13.70;6.38;;;;;;;22.64;49.25;101914.91;5049783;28;20036;-53
2021/09/04 09:02:24;;;;;;;10.80;5.85;;;;;;;22.53;47.75;101914.28;5050257;28;20052;-52
2021/09/04 09:05:07;;;;;;;13.88;5.80;;;;;;;22.59;47.67;101914.97;5053828;28;20056;-51
2021/09/04 09:07:44;;;;;;;13.68;6.85;;;;;;;22.75;45.72;101912.78;5050510;28;20386;-53
2021/09/04 09:10:19;;;;;;;11.98;6.28;;;;;;;22.74;44.84;101911.16;5050095;28;20055;-50
2021/09/04 09:12:45;;;;;;;154.95;103.80;;;;;;;22.97;45.91;101907.47;5055509;28;20033;-52
2021/09/04 09:15:19;;;;;;;28.48;19.45;;;;;;;23.19;46.18;101906.78;5048388;28;20039;-52
2021/09/04 09:17:55;;;;;;;;;;;;;;;23.41;45.54;101906.03;5050161;28;20025;-54
2021/09/04 09:20:24;;;;;;;10.50;6.50;;;;;;;23.40;44.82;101907.16;5049441;28;19974;-54
2021/09/04 09:22:49;;;;;;;17.70;7.97;;;;;;;22.87;43.36;101911.22;5051604;28;20047;-52
2021/09/04 09:25:17;;;;;;;11.75;7.22;;;;;;;23.16;43.69;101913.66;5050506;28;20604;-50
2021/09/04 09:28:02;;;;;;;12.15;7.47;;;;;;;23.57;44.91;101912.81;5048240;28;20119;-53
2021/09/04 09:30:33;;;;;;;11.18;6.85;;;;;;;23.96;43.36;101908.63;5065974;28;20037;-52
2021/09/04 09:32:59;;;;;;;11.05;6.22;;;;;;;23.92;43.94;101910.38;5047626;28;20024;-52
2021/09/04 09:35:33;;;;;;;12.68;7.68;;;;;;;23.85;43.86;101908.06;5049094;28;20031;-50
2021/09/04 09:37:58;;;;;;;12.50;7.20;;;;;;;24.12;43.40;101907.16;5049220;28;20029;-53
2021/09/04 09:40:24;;;;;;;14.98;7.70;;;;;;;24.52;42.03;101915.47;5048069;28;20032;-53
2021/09/04 09:42:50;;;;;;;14.23;8.10;;;;;;;24.78;40.38;101908.22;5053828;28;20035;-51
2021/09/04 09:45:15;;;;;;;12.82;7.82;;;;;;;24.99;39.36;101901.06;5051489;28;20032;-53
2021/09/04 09:47:53;;;;;;;14.48;7.55;;;;;;;24.56;37.55;101900.03;5051841;28;20267;-51
2021/09/04 09:50:19;;;;;;;12.75;7.25;;;;;;;24.16;39.67;101899.94;5052362;28;20029;-55
2021/09/04 09:52:45;;;;;;;12.57;7.25;;;;;;;24.18;40.01;101905.09;5053784;28;20043;-54
2021/09/04 09:55:12;;;;;;;14.90;8.05;;;;;;;23.62;40.50;101895.47;5050535;28;20017;-54
2021/09/04 09:57:39;;;;;;;13.48;7.95;;;;;;;23.78;40.83;101907.69;5053274;28;20603;-50
2021/09/04 10:00:06;;;;;;;12.85;7.82;;;;;;;23.42;41.18;101904.91;5047491;28;20132;-51
2021/09/04 10:02:33;;;;;;;13.80;7.50;;;;;;;23.63;39.85;101906.09;5046816;28;20029;-50
2021/09/04 10:04:59;;;;;;;11.15;6.65;;;;;;;24.01;42.12;101911.25;5052270;28;20152;-51
2021/09/04 10:07:25;;;;;;;11.20;6.93;;;;;;;24.51;41.75;101916.59;5055076;28;20033;-53
2021/09/04 10:09:51;;;;;;;10.10;6.38;;;;;;;25.05;41.22;101904.47;5052919;28;20501;-52
2021/09/04 10:12:17;;;;;;;12.40;6.82;;;;;;;25.15;37.61;101915.16;5056010;28;20025;-50
2021/09/04 10:14:45;;;;;;;12.30;6.28;;;;;;;24.34;39.78;101915.38;5056202;28;20554;-51
2021/09/04 10:17:11;;;;;;;12.05;7.18;;;;;;;24.71;39.46;101916.88;5053002;28;20036;-52
2021/09/04 10:19:39;;;;;;;9.77;6.35;;;;;;;24.84;39.97;101911.63;5054770;28;20025;-51
2021/09/04 10:22:10;;;;;;;11.27;6.82;;;;;;;24.77;40.00;101909.31;5050860;28;20032;-50
2021/09/04 10:24:41;;;;;;;12.95;7.53;;;;;;;24.52;40.31;101915.47;5053678;28;20036;-53
2021/09/04 10:27:07;;;;;;;10.43;6.32;;;;;;;24.66;38.53;101910.72;5055011;28;20275;-51
2021/09/04 10:29:40;;;;;;;10.32;6.40;;;;;;;24.61;37.53;101902.66;5056940;28;20029;-51
2021/09/04 10:32:07;;;;;;;11.57;6.57;;;;;;;24.70;37.96;101906.22;5050909;28;20176;-50
2021/09/04 10:34:38;;;;;;;11.48;5.97;;;;;;;24.47;38.08;101907.41;5054864;28;20060;-53
2021/09/04 10:37:08;;;;;;;13.70;6.70;;;;;;;24.40;38.25;101910.56;5056630;28;20074;-54
2021/09/04 10:40:10;;;;;;;10.77;6.38;;;;;;;24.82;37.84;101902.91;5067288;28;20028;-51
2021/09/04 10:42:43;;;;;;;11.18;6.95;;;;;;;25.59;38.38;101891.31;5048037;28;20028;-54
2021/09/04 10:45:10;;;;;;;14.25;6.38;;;;;;;26.34;37.31;101898.22;5053592;28;20017;-54
2021/09/04 10:47:47;;;;;;;10.90;6.22;;;;;;;25.21;36.60;101904.81;5055579;28;20037;-55
2021/09/04 10:50:18;;;;;;;11.43;6.15;;;;;;;25.96;37.66;101897.31;5052821;28;20036;-54
2021/09/04 10:52:49;;;;;;;16.65;7.13;;;;;;;26.74;37.59;101893.28;5052491;28;20579;-52
2021/09/04 10:55:38;;;;;;;12.52;7.13;;;;;;;26.96;35.16;101894.16;5051709;28;20364;-52
2021/09/04 10:58:14;;;;;;;10.57;6.85;;;;;;;25.48;38.43;101893.56;5050759;28;20513;-52
2021/09/04 11:00:44;;;;;;;14.20;7.07;;;;;;;26.45;37.54;101894.03;5051364;28;20033;-51
2021/09/04 11:03:21;;;;;;;10.13;6.45;;;;;;;27.30;37.63;101891.25;5050248;28;20039;-53
2021/09/04 11:05:49;;;;;;;11.40;6.10;;;;;;;27.65;37.16;101896.53;5053495;28;20301;-54
2021/09/04 11:08:20;;;;;;;11.50;6.30;;;;;;;27.52;37.40;101892.88;5050410;28;20029;-55